Time;durP1;ratioP1;P1;durP2;ratioP2;P2;SDS_P1;SDS_P2;PMS_P1;PMS_P2;Temp;Humidity;BMP_temperature;BMP_pressure;BME280_temperature;BME280_humidity;BME280_pressure;Samples;Min_cycle;Max_cycle;Signal;HPM_P1;HPM_P2
2022/02/27 00:00:58;;;;;;;15.90;10.82;;;4.30;99.90;;;;;;5120503;27;20203;-63
2022/02/27 00:03:33;;;;;;;14.70;10.05;;;4.30;99.90;;;;;;5116743;28;20777;-66
2022/02/27 00:06:06;;;;;;;14.50;11.32;;;4.20;99.90;;;;;;5122826;28;20230;-61
2022/02/27 00:08:38;;;;;;;12.82;11.48;;;4.20;99.90;;;;;;5123614;28;20217;-60
2022/02/27 00:11:08;;;;;;;16.08;11.60;;;4.20;99.90;;;;;;5123008;28;21741;-61
2022/02/27 00:13:48;;;;;;;14.88;11.88;;;4.20;99.90;;;;;;5121629;28;20303;-62
2022/02/27 00:16:19;;;;;;;13.60;10.02;;;4.30;99.90;;;;;;5121249;28;20214;-63
2022/02/27 00:18:53;;;;;;;14.93;12.82;;;4.20;99.90;;;;;;5122673;28;20202;-60
2022/02/27 00:21:26;;;;;;;14.00;10.35;;;4.20;99.90;;;;;;5121553;28;20196;-64
2022/02/27 00:23:57;;;;;;;12.95;10.32;;;4.20;99.90;;;;;;5122188;28;20232;-61
2022/02/27 00:26:28;;;;;;;13.70;11.10;;;4.20;99.90;;;;;;5121504;28;20199;-60
2022/02/27 00:28:59;;;;;;;12.35;11.10;;;4.20;99.90;;;;;;5120059;28;20206;-60
2022/02/27 00:31:30;;;;;;;11.20;9.85;;;4.20;99.90;;;;;;5121984;28;20242;-62
2022/02/27 00:34:10;;;;;;;12.15;10.02;;;4.10;99.90;;;;;;5118266;28;20326;-61
2022/02/27 00:36:44;;;;;;;15.05;11.20;;;4.10;99.90;;;;;;5119899;28;20309;-64
2022/02/27 00:39:15;;;;;;;12.50;11.15;;;4.10;99.90;;;;;;5121815;28;20226;-61
2022/02/27 00:41:46;;;;;;;11.60;10.20;;;4.10;99.90;;;;;;5122316;28;20207;-62
2022/02/27 00:44:17;;;;;;;12.65;10.88;;;4.20;99.90;;;;;;5121520;28;20224;-61
2022/02/27 00:46:51;;;;;;;13.90;10.07;;;4.20;99.90;;;;;;5123007;28;20234;-62
2022/02/27 00:49:23;;;;;;;13.48;10.38;;;4.20;99.90;;;;;;5122908;28;20210;-62
2022/02/27 00:51:56;;;;;;;11.57;10.23;;;4.20;99.90;;;;;;5122911;28;20238;-63
2022/02/27 00:54:28;;;;;;;18.60;13.00;;;4.30;99.90;;;;;;5123132;28;20214;-62
2022/02/27 00:57:02;;;;;;;12.32;10.57;;;4.20;99.90;;;;;;5107224;28;20224;-64
2022/02/27 00:59:33;;;;;;;11.52;9.93;;;4.30;99.90;;;;;;5122970;27;20204;-64
2022/02/27 01:02:04;;;;;;;10.77;9.68;;;4.20;99.90;;;;;;5122022;28;20200;-64
2022/02/27 01:04:35;;;;;;;15.00;10.05;;;4.20;99.90;;;;;;5122620;28;20228;-61
2022/02/27 01:07:09;;;;;;;12.02;10.23;;;4.20;99.90;;;;;;5121909;28;20184;-63
2022/02/27 01:09:40;;;;;;;11.13;9.13;;;4.20;99.90;;;;;;5123777;28;20187;-63
2022/02/27 01:12:12;;;;;;;10.80;9.18;;;4.20;99.90;;;;;;5122511;28;20208;-63
2022/02/27 01:14:43;;;;;;;10.40;8.85;;;4.30;99.90;;;;;;5121413;28;20196;-63
2022/02/27 01:17:15;;;;;;;9.60;8.60;;;4.20;99.90;;;;;;5107716;28;20212;-62
2022/02/27 01:19:46;;;;;;;14.23;10.85;;;4.30;99.90;;;;;;5125086;28;20259;-59
2022/02/27 01:22:22;;;;;;;12.18;9.23;;;4.30;99.90;;;;;;5124270;28;20636;-63
2022/02/27 01:24:54;;;;;;;10.50;9.00;;;4.20;99.90;;;;;;5124996;28;20284;-66
2022/02/27 01:27:26;;;;;;;11.40;9.55;;;4.20;99.90;;;;;;5124274;28;20208;-67
2022/02/27 01:32:52;;;;;;;10.77;8.68;;;4.10;99.90;;;;;;5123985;28;20200;-58
2022/02/27 01:35:24;;;;;;;12.98;9.02;;;4.10;99.90;;;;;;5123460;28;20195;-60
2022/02/27 01:37:56;;;;;;;11.20;8.85;;;4.10;99.90;;;;;;5122678;28;20260;-60
2022/02/27 01:40:28;;;;;;;12.82;9.70;;;4.10;99.90;;;;;;5123324;28;20253;-66
2022/02/27 01:42:59;;;;;;;11.75;9.05;;;4.10;99.90;;;;;;5122302;28;20287;-61
2022/02/27 01:45:40;;;;;;;10.05;9.00;;;4.20;99.90;;;;;;5122246;28;20571;-59
2022/02/27 01:48:13;;;;;;;12.10;8.98;;;4.20;99.90;;;;;;5122137;28;20674;-63
2022/02/27 01:50:45;;;;;;;10.65;8.95;;;4.20;99.90;;;;;;5123512;28;20204;-62
2022/02/27 01:53:17;;;;;;;9.88;8.45;;;4.30;99.90;;;;;;5122481;28;20284;-63
2022/02/27 01:55:57;;;;;;;9.98;8.98;;;4.30;99.90;;;;;;5122063;28;20690;-64
2022/02/27 01:58:34;;;;;;;10.13;8.32;;;4.30;99.90;;;;;;5121715;28;20184;-69
2022/02/27 02:01:07;;;;;;;11.40;10.05;;;4.40;99.90;;;;;;5122634;28;20235;-62
2022/02/27 02:03:39;;;;;;;9.80;8.35;;;4.40;99.90;;;;;;5121693;28;20280;-63
2022/02/27 02:06:10;;;;;;;10.80;9.70;;;4.50;99.90;;;;;;5119393;28;20228;-62
2022/02/27 02:08:42;;;;;;;11.68;7.80;;;4.50;99.90;;;;;;5114063;28;20304;-63
2022/02/27 02:11:14;;;;;;;11.07;8.80;;;4.50;99.90;;;;;;5122330;28;20287;-60
2022/02/27 02:13:48;;;;;;;10.52;7.80;;;4.60;99.90;;;;;;5121199;28;20218;-69
2022/02/27 02:16:19;;;;;;;10.25;8.48;;;4.50;99.90;;;;;;5121561;28;20192;-63
2022/02/27 02:18:52;;;;;;;14.82;9.27;;;4.60;99.90;;;;;;5119037;28;20271;-60
2022/02/27 02:21:26;;;;;;;12.50;9.07;;;4.50;99.90;;;;;;5125488;28;20188;-60
2022/02/27 02:23:57;;;;;;;10.60;8.93;;;4.60;99.90;;;;;;5124496;28;20199;-60
2022/02/27 02:26:28;;;;;;;9.65;8.63;;;4.60;99.90;;;;;;5124957;28;20227;-62
2022/02/27 02:29:00;;;;;;;10.43;9.35;;;4.60;99.90;;;;;;5124825;28;20243;-62
2022/02/27 02:31:35;;;;;;;11.30;10.10;;;4.70;99.90;;;;;;5125311;28;20207;-66
2022/02/27 02:34:07;;;;;;;14.85;9.27;;;4.70;99.90;;;;;;5125085;28;20191;-61
2022/02/27 02:36:41;;;;;;;11.50;9.35;;;4.70;99.90;;;;;;5124358;28;20220;-59
2022/02/27 02:39:15;;;;;;;10.68;9.00;;;4.70;99.90;;;;;;5124253;28;20203;-60
2022/02/27 02:41:46;;;;;;;11.23;9.00;;;4.60;99.90;;;;;;5124514;28;20196;-61
2022/02/27 02:44:17;;;;;;;9.68;8.73;;;4.70;99.90;;;;;;5124607;28;20310;-61
2022/02/27 02:46:48;;;;;;;54.20;48.10;;;4.70;99.90;;;;;;5125137;28;20226;-60
2022/02/27 02:49:22;;;;;;;16.10;13.75;;;4.70;99.90;;;;;;5125249;27;20196;-61
2022/02/27 02:51:55;;;;;;;14.48;11.20;;;4.80;99.90;;;;;;5123042;28;20208;-60
2022/02/27 02:54:26;;;;;;;17.75;13.93;;;4.80;99.90;;;;;;5121809;28;20227;-60
2022/02/27 02:57:00;;;;;;;118.63;92.85;;;4.80;99.90;;;;;;5122910;28;20270;-61
2022/02/27 02:59:31;;;;;;;9.90;8.82;;;4.80;99.90;;;;;;5121082;28;20200;-60
2022/02/27 03:02:02;;;;;;;10.40;9.32;;;4.70;99.90;;;;;;5121985;28;20207;-60
2022/02/27 03:04:33;;;;;;;9.52;7.80;;;4.70;99.90;;;;;;5121288;28;20246;-60
2022/02/27 03:07:06;;;;;;;10.40;8.35;;;4.70;99.90;;;;;;5120474;28;20219;-61
2022/02/27 03:09:37;;;;;;;11.25;8.18;;;4.70;99.90;;;;;;5122195;28;20260;-60
2022/02/27 03:12:08;;;;;;;9.32;7.70;;;4.70;99.90;;;;;;5121008;28;20210;-60
2022/02/27 03:14:39;;;;;;;8.20;7.40;;;4.70;99.90;;;;;;5122410;28;20204;-60
2022/02/27 03:17:10;;;;;;;8.25;6.85;;;4.70;99.90;;;;;;5122055;28;20518;-60
2022/02/27 03:19:41;;;;;;;10.20;7.40;;;4.70;99.90;;;;;;5121747;28;20206;-60
2022/02/27 03:22:15;;;;;;;8.13;6.90;;;4.70;99.90;;;;;;5122069;28;20253;-60
2022/02/27 03:24:46;;;;;;;8.40;6.93;;;4.80;99.90;;;;;;5121599;28;20204;-60
2022/02/27 03:27:48;;;;;;;7.93;6.43;;;4.80;99.90;;;;;;5116983;28;20188;-61
2022/02/27 03:30:19;;;;;;;8.25;7.25;;;4.80;99.90;;;;;;5018740;28;20299;-62
2022/02/27 03:32:55;;;;;;;9.13;7.47;;;4.80;99.90;;;;;;5020682;28;20199;-60
2022/02/27 03:35:29;;;;;;;8.48;6.63;;;4.90;99.90;;;;;;5018305;28;20257;-62
2022/02/27 03:38:02;;;;;;;8.70;6.80;;;4.90;99.90;;;;;;5014121;28;20214;-60
2022/02/27 03:40:33;;;;;;;8.23;6.82;;;4.90;99.90;;;;;;5014876;28;20211;-60
2022/02/27 03:43:09;;;;;;;8.93;7.13;;;4.90;99.90;;;;;;5011862;28;20208;-60
2022/02/27 03:45:40;;;;;;;11.25;8.60;;;5.00;99.90;;;;;;5016690;28;20215;-61
2022/02/27 03:48:14;;;;;;;8.05;6.45;;;5.00;99.90;;;;;;5019609;28;20230;-60
2022/02/27 03:50:45;;;;;;;7.68;6.97;;;5.00;99.90;;;;;;5019449;28;20213;-62
2022/02/27 03:53:23;;;;;;;8.10;7.30;;;5.10;99.90;;;;;;5017566;28;20239;-61
2022/02/27 03:55:54;;;;;;;8.63;6.32;;;5.10;99.90;;;;;;5020181;28;20217;-62
2022/02/27 03:58:30;;;;;;;8.40;7.10;;;5.10;99.90;;;;;;5018773;28;20273;-60
2022/02/27 04:01:02;;;;;;;7.75;6.35;;;5.20;99.90;;;;;;5020751;28;20718;-61
2022/02/27 04:03:35;;;;;;;7.68;6.88;;;5.30;99.90;;;;;;5020156;28;20234;-60
2022/02/27 04:06:06;;;;;;;7.72;6.22;;;5.40;99.90;;;;;;5019927;28;20234;-61
2022/02/27 04:08:43;;;;;;;8.65;6.82;;;5.40;99.90;;;;;;5121031;28;20214;-60
2022/02/27 04:11:13;;;;;;;10.75;5.90;;;5.40;99.90;;;;;;5123787;28;20626;-60
2022/02/27 04:13:48;;;;;;;7.50;5.95;;;5.50;99.90;;;;;;5123206;28;20203;-59
2022/02/27 04:16:19;;;;;;;6.70;6.10;;;5.50;99.90;;;;;;5123076;28;20210;-60
2022/02/27 04:18:50;;;;;;;7.50;5.80;;;5.50;99.90;;;;;;5122385;28;20235;-61
2022/02/27 04:21:21;;;;;;;10.38;7.38;;;5.60;99.90;;;;;;5124555;28;20619;-60
2022/02/27 04:23:54;;;;;;;7.63;6.65;;;5.60;99.90;;;;;;5123448;28;20196;-60
2022/02/27 04:26:27;;;;;;;8.38;7.03;;;5.70;99.90;;;;;;5120884;28;20262;-60
2022/02/27 04:29:02;;;;;;;7.10;6.15;;;5.70;99.90;;;;;;5122498;28;20204;-60
2022/02/27 04:31:34;;;;;;;7.15;6.10;;;5.70;99.90;;;;;;5124771;28;20244;-60
2022/02/27 04:34:11;;;;;;;7.30;6.60;;;5.70;99.90;;;;;;5123383;28;20272;-60
2022/02/27 04:36:42;;;;;;;12.35;7.63;;;5.70;99.90;;;;;;5120519;28;20628;-61
2022/02/27 04:39:15;;;;;;;9.10;6.85;;;5.80;99.90;;;;;;5122863;28;20203;-61
2022/02/27 04:41:46;;;;;;;7.43;6.68;;;5.70;99.90;;;;;;5120971;28;20228;-61
2022/02/27 04:44:18;;;;;;;7.85;6.72;;;5.80;99.90;;;;;;5121955;28;20210;-60
2022/02/27 04:46:49;;;;;;;7.13;6.00;;;5.80;99.90;;;;;;5121169;28;20223;-61
2022/02/27 04:49:21;;;;;;;6.90;6.25;;;5.70;99.90;;;;;;5122512;28;20310;-61
2022/02/27 04:51:53;;;;;;;8.25;6.15;;;5.70;99.90;;;;;;5123467;28;20200;-61
2022/02/27 04:54:29;;;;;;;6.60;5.72;;;5.80;99.90;;;;;;5120589;28;20202;-61
2022/02/27 04:57:00;;;;;;;7.22;6.38;;;5.80;99.90;;;;;;5122652;28;20250;-60
2022/02/27 04:59:40;;;;;;;6.88;6.20;;;5.80;99.90;;;;;;5122646;28;20196;-61
2022/02/27 05:02:11;;;;;;;9.43;6.60;;;5.80;99.90;;;;;;5120490;28;20260;-61
2022/02/27 05:04:43;;;;;;;7.57;6.45;;;5.90;99.90;;;;;;5120169;28;20203;-61
2022/02/27 05:07:14;;;;;;;7.30;6.60;;;5.90;99.90;;;;;;5121635;28;20220;-61
2022/02/27 05:09:56;;;;;;;8.00;6.35;;;5.90;99.90;;;;;;5121500;28;20299;-61
2022/02/27 05:12:27;;;;;;;6.80;5.88;;;6.00;99.90;;;;;;5118496;28;20227;-61
2022/02/27 05:14:58;;;;;;;7.40;6.60;;;5.90;99.90;;;;;;5121985;28;20200;-61
2022/02/27 05:17:37;;;;;;;9.52;6.30;;;5.90;99.90;;;;;;5120985;28;20229;-63
2022/02/27 05:20:10;;;;;;;6.90;5.47;;;6.00;99.90;;;;;;5121003;28;20207;-62
2022/02/27 05:22:45;;;;;;;6.97;6.28;;;6.00;99.90;;;;;;5123133;28;20191;-60
2022/02/27 05:25:19;;;;;;;7.95;6.28;;;6.10;99.90;;;;;;5123105;28;20196;-60
2022/02/27 05:27:53;;;;;;;8.15;7.35;;;6.10;99.90;;;;;;5120390;28;20233;-62
2022/02/27 05:30:25;;;;;;;8.68;7.80;;;6.00;99.90;;;;;;5120061;28;20204;-62
2022/02/27 05:32:56;;;;;;;8.00;6.18;;;6.00;99.90;;;;;;5126445;28;20200;-62
2022/02/27 05:35:27;;;;;;;9.70;7.47;;;6.00;99.90;;;;;;5121715;28;20200;-62
2022/02/27 05:37:58;;;;;;;7.57;6.65;;;6.00;99.90;;;;;;5120121;28;20760;-61
2022/02/27 05:40:31;;;;;;;8.50;6.50;;;6.00;99.90;;;;;;5119084;28;20195;-62
2022/02/27 05:43:02;;;;;;;8.48;7.63;;;6.00;99.90;;;;;;5122053;28;20280;-62
2022/02/27 05:45:36;;;;;;;7.88;6.90;;;5.90;99.90;;;;;;5121667;28;20287;-61
2022/02/27 05:48:07;;;;;;;8.10;6.53;;;5.80;99.90;;;;;;5123449;28;20667;-62
2022/02/27 05:50:41;;;;;;;8.48;6.90;;;5.80;99.90;;;;;;5118276;28;20200;-62
2022/02/27 05:53:12;;;;;;;8.27;7.03;;;5.90;99.90;;;;;;5116951;28;20215;-62
2022/02/27 05:55:46;;;;;;;11.45;7.38;;;6.10;99.90;;;;;;5122768;27;20630;-61
2022/02/27 05:58:17;;;;;;;10.60;7.75;;;6.00;99.90;;;;;;5122057;27;20227;-61
2022/02/27 06:00:51;;;;;;;7.65;6.95;;;6.00;99.90;;;;;;5124292;27;20210;-60
2022/02/27 06:03:22;;;;;;;9.32;7.25;;;6.00;99.90;;;;;;5124955;28;20227;-61
2022/02/27 06:05:53;;;;;;;8.10;6.47;;;5.90;99.90;;;;;;5125038;28;20295;-61
2022/02/27 06:08:24;;;;;;;7.85;6.47;;;5.90;99.90;;;;;;5126503;27;20224;-61
2022/02/27 06:10:59;;;;;;;9.98;7.30;;;5.90;99.90;;;;;;5125824;27;20271;-61
2022/02/27 06:13:30;;;;;;;8.75;7.20;;;5.90;99.90;;;;;;5125879;27;20218;-61
2022/02/27 06:16:01;;;;;;;8.07;7.28;;;5.90;99.90;;;;;;5124882;27;20196;-61
2022/02/27 06:18:32;;;;;;;9.70;8.10;;;5.80;99.90;;;;;;5125048;27;20529;-62
2022/02/27 06:21:04;;;;;;;9.25;7.47;;;5.80;99.90;;;;;;5125959;27;20204;-62
2022/02/27 06:23:36;;;;;;;11.27;7.85;;;5.80;99.90;;;;;;5126782;27;20184;-63
2022/02/27 06:26:15;;;;;;;7.82;7.03;;;5.70;99.90;;;;;;5128539;27;20187;-62
2022/02/27 06:28:45;;;;;;;9.23;7.43;;;5.80;99.90;;;;;;5123764;27;20224;-62
2022/02/27 06:31:16;;;;;;;8.85;7.35;;;5.80;99.90;;;;;;5125578;28;20204;-62
2022/02/27 06:33:47;;;;;;;9.43;8.20;;;5.80;99.90;;;;;;5125707;27;20210;-62
2022/02/27 06:36:18;;;;;;;11.07;8.77;;;5.90;99.90;;;;;;5125519;27;20256;-62
2022/02/27 06:38:49;;;;;;;9.48;8.32;;;5.90;99.90;;;;;;5124518;28;20192;-62
2022/02/27 06:41:21;;;;;;;10.02;8.95;;;5.70;99.90;;;;;;5125840;28;20252;-62
2022/02/27 06:43:52;;;;;;;9.80;8.82;;;5.70;99.90;;;;;;5124439;28;20204;-61
2022/02/27 06:46:26;;;;;;;8.93;8.02;;;5.70;99.90;;;;;;5125679;27;20196;-61
2022/02/27 06:48:57;;;;;;;9.43;7.68;;;5.60;99.90;;;;;;5131470;27;20227;-61
2022/02/27 06:51:28;;;;;;;9.65;6.93;;;5.60;99.90;;;;;;5128312;27;20200;-60
2022/02/27 06:53:59;;;;;;;8.82;7.80;;;5.50;99.90;;;;;;5136702;27;20191;-60
2022/02/27 06:56:32;;;;;;;8.02;7.18;;;5.50;99.90;;;;;;5137625;27;20219;-60
2022/02/27 06:59:03;;;;;;;8.13;7.28;;;5.40;99.90;;;;;;5127764;27;20204;-60
2022/02/27 07:01:33;;;;;;;9.38;7.57;;;5.40;99.90;;;;;;5127494;27;20207;-60
2022/02/27 07:04:05;;;;;;;9.30;7.45;;;5.30;99.90;;;;;;5127129;27;20302;-60
2022/02/27 07:06:36;;;;;;;8.93;7.20;;;5.20;99.90;;;;;;5124093;27;20294;-60
2022/02/27 07:09:07;;;;;;;8.13;6.70;;;5.20;99.90;;;;;;5134352;27;20222;-60
2022/02/27 07:11:40;;;;;;;10.00;9.00;;;5.10;99.90;;;;;;5125755;27;20220;-60
2022/02/27 07:14:12;;;;;;;13.95;8.60;;;5.10;99.90;;;;;;5123470;28;20309;-60
2022/02/27 07:16:42;;;;;;;9.75;8.30;;;5.10;99.90;;;;;;5130141;27;20196;-60
2022/02/27 07:19:13;;;;;;;9.48;8.13;;;5.10;99.90;;;;;;5119821;27;20204;-61
2022/02/27 07:21:45;;;;;;;9.82;8.02;;;5.10;99.90;;;;;;5124973;27;20184;-60
2022/02/27 07:24:16;;;;;;;10.02;8.65;;;5.10;99.90;;;;;;5125529;27;20196;-60
2022/02/27 07:26:48;;;;;;;8.70;7.68;;;5.10;99.90;;;;;;5127205;27;20203;-60
2022/02/27 07:29:21;;;;;;;9.27;8.13;;;5.20;99.90;;;;;;5137645;27;20215;-60
2022/02/27 07:31:51;;;;;;;9.38;8.10;;;5.10;99.90;;;;;;5125781;27;20541;-60
2022/02/27 07:34:22;;;;;;;10.32;8.25;;;5.10;99.90;;;;;;5126487;27;20248;-60
2022/02/27 07:36:55;;;;;;;11.73;8.43;;;5.10;99.90;;;;;;5130374;27;20186;-61
2022/02/27 07:39:26;;;;;;;9.75;8.35;;;5.10;99.90;;;;;;5125441;27;20196;-60
2022/02/27 07:41:59;;;;;;;10.02;8.43;;;5.10;99.90;;;;;;5125424;27;20200;-61
2022/02/27 07:44:32;;;;;;;11.85;9.10;;;5.20;99.90;;;;;;5125452;27;20200;-60
2022/02/27 07:47:04;;;;;;;11.00;8.68;;;5.20;99.90;;;;;;5135303;27;20579;-60
2022/02/27 07:49:35;;;;;;;10.15;8.35;;;5.30;99.90;;;;;;5124557;27;20228;-60
2022/02/27 07:52:07;;;;;;;11.35;8.10;;;5.30;99.90;;;;;;5125036;27;20204;-60
2022/02/27 07:54:38;;;;;;;9.60;7.72;;;5.30;99.90;;;;;;5124292;27;20194;-60
2022/02/27 07:57:14;;;;;;;12.05;7.85;;;5.30;99.90;;;;;;5122344;28;20234;-60
2022/02/27 07:59:45;;;;;;;14.27;8.77;;;5.30;99.90;;;;;;5124586;27;20231;-60
2022/02/27 08:02:16;;;;;;;9.20;7.13;;;5.30;99.90;;;;;;5125680;27;20200;-60
2022/02/27 08:04:47;;;;;;;11.95;8.18;;;5.30;99.90;;;;;;5136008;27;20196;-60
2022/02/27 08:07:18;;;;;;;9.30;8.23;;;5.30;99.90;;;;;;5130218;27;20184;-60
2022/02/27 08:09:48;;;;;;;9.75;7.95;;;5.20;99.90;;;;;;5122347;27;20204;-60
2022/02/27 08:12:22;;;;;;;10.10;8.98;;;5.30;99.90;;;;;;5123828;27;20210;-60
2022/02/27 08:14:52;;;;;;;9.95;8.65;;;5.20;99.90;;;;;;5123894;28;20204;-60
2022/02/27 08:17:23;;;;;;;9.68;8.07;;;5.20;99.90;;;;;;5124094;27;20203;-60
2022/02/27 08:19:54;;;;;;;12.23;9.02;;;5.20;99.90;;;;;;5125307;27;20539;-60
2022/02/27 08:22:25;;;;;;;11.13;8.93;;;5.10;99.90;;;;;;5122983;28;20244;-60
2022/02/27 08:24:55;;;;;;;10.30;8.45;;;5.10;99.90;;;;;;5124204;27;20512;-60
2022/02/27 08:27:28;;;;;;;11.32;8.38;;;5.00;99.90;;;;;;5131790;27;20207;-60
2022/02/27 08:29:59;;;;;;;12.27;9.13;;;4.90;99.90;;;;;;5130086;27;20202;-60
2022/02/27 08:32:29;;;;;;;13.35;8.25;;;4.80;99.90;;;;;;5123930;27;20222;-60
2022/02/27 08:35:00;;;;;;;12.07;9.15;;;4.80;99.90;;;;;;5125633;27;20200;-60
2022/02/27 08:37:31;;;;;;;10.88;9.63;;;4.80;99.90;;;;;;5123588;27;20210;-60
2022/02/27 08:40:02;;;;;;;13.43;8.80;;;4.80;99.90;;;;;;5133164;27;20212;-60
2022/02/27 08:42:34;;;;;;;10.35;9.13;;;4.90;99.90;;;;;;5124733;27;20200;-59
2022/02/27 08:45:06;;;;;;;12.23;9.05;;;4.90;99.90;;;;;;5126189;27;20236;-60
2022/02/27 08:47:37;;;;;;;12.02;8.55;;;4.90;99.90;;;;;;5130143;27;20225;-59
2022/02/27 08:50:08;;;;;;;10.07;8.30;;;4.90;99.90;;;;;;5129359;27;20651;-59
2022/02/27 08:52:40;;;;;;;11.07;9.13;;;5.00;99.90;;;;;;5137355;27;20283;-60
2022/02/27 08:55:13;;;;;;;12.30;9.50;;;5.10;99.90;;;;;;5112543;27;20203;-60
2022/02/27 08:57:48;;;;;;;10.82;8.40;;;5.00;99.90;;;;;;5131486;27;20229;-59
2022/02/27 09:00:19;;;;;;;9.10;8.07;;;5.00;99.90;;;;;;5130477;27;20225;-59
2022/02/27 09:02:50;;;;;;;11.77;8.75;;;5.00;99.90;;;;;;5122349;28;20388;-59
2022/02/27 09:05:21;;;;;;;10.02;8.70;;;5.00;99.90;;;;;;5123025;27;20195;-59
2022/02/27 09:07:52;;;;;;;12.30;9.57;;;4.90;99.90;;;;;;5126485;27;20196;-59
2022/02/27 09:10:23;;;;;;;11.48;9.82;;;4.80;99.90;;;;;;5122444;27;20203;-59
2022/02/27 09:12:55;;;;;;;10.77;9.05;;;4.80;99.90;;;;;;5123835;27;20263;-59
2022/02/27 09:15:26;;;;;;;11.20;9.35;;;4.70;99.90;;;;;;5127038;27;20200;-59
2022/02/27 09:17:57;;;;;;;11.45;9.55;;;4.70;99.90;;;;;;5124505;27;20196;-59
2022/02/27 09:20:28;;;;;;;15.43;9.70;;;4.70;99.90;;;;;;5122342;28;20806;-59
2022/02/27 09:22:59;;;;;;;11.57;10.05;;;4.70;99.90;;;;;;5124120;27;20194;-59
2022/02/27 09:25:30;;;;;;;12.10;10.73;;;4.70;99.90;;;;;;5123111;28;20206;-59
2022/02/27 09:28:24;;;;;;;11.20;9.40;;;4.70;99.90;;;;;;5123122;28;20224;-59
2022/02/27 09:30:54;;;;;;;13.07;10.32;;;4.80;99.90;;;;;;5122529;27;20196;-59
2022/02/27 09:33:26;;;;;;;13.18;10.50;;;4.80;99.90;;;;;;5122669;28;20271;-59
2022/02/27 09:35:57;;;;;;;13.60;10.40;;;4.80;99.90;;;;;;5113195;28;20207;-59
2022/02/27 09:38:27;;;;;;;13.10;9.25;;;4.80;99.90;;;;;;5119991;28;20184;-59
2022/02/27 09:41:00;;;;;;;12.65;9.75;;;4.80;99.90;;;;;;5123687;28;20204;-59
2022/02/27 09:43:32;;;;;;;13.05;9.70;;;4.80;99.90;;;;;;5120591;28;20207;-59
2022/02/27 09:46:03;;;;;;;11.05;9.82;;;4.80;99.90;;;;;;5122711;28;20195;-60
2022/02/27 09:48:35;;;;;;;13.27;10.30;;;4.90;99.90;;;;;;5126922;28;20229;-59
2022/02/27 09:51:06;;;;;;;13.57;10.50;;;4.80;99.90;;;;;;5128999;28;20196;-59
2022/02/27 09:53:37;;;;;;;14.40;10.77;;;4.80;99.90;;;;;;5123329;28;20194;-59
2022/02/27 09:56:08;;;;;;;13.43;9.95;;;4.80;99.90;;;;;;5123323;28;20196;-59
2022/02/27 09:58:41;;;;;;;12.48;10.15;;;4.80;99.90;;;;;;5124546;27;20550;-59
2022/02/27 10:01:14;;;;;;;12.55;11.00;;;4.80;99.90;;;;;;5122784;28;20197;-59
2022/02/27 10:03:46;;;;;;;15.50;10.93;;;4.80;99.90;;;;;;5122304;28;20204;-59
2022/02/27 10:06:18;;;;;;;12.05;9.88;;;4.80;99.90;;;;;;5122782;28;20188;-59
2022/02/27 10:08:55;;;;;;;14.25;10.98;;;4.80;99.90;;;;;;5125157;28;20211;-59
2022/02/27 10:11:27;;;;;;;14.50;10.80;;;4.80;99.90;;;;;;5124260;28;20271;-60
2022/02/27 10:14:00;;;;;;;17.25;13.48;;;4.90;99.90;;;;;;5118477;28;20228;-60
2022/02/27 10:16:32;;;;;;;12.48;10.90;;;4.90;99.90;;;;;;5126882;28;20206;-60
2022/02/27 10:19:07;;;;;;;13.45;11.88;;;4.90;99.90;;;;;;5125949;28;21752;-58
2022/02/27 10:21:41;;;;;;;14.27;11.85;;;4.90;99.90;;;;;;5109334;28;20202;-58
2022/02/27 10:24:23;;;;;;;18.13;12.15;;;4.80;99.90;;;;;;5122010;28;20215;-59
2022/02/27 10:26:53;;;;;;;14.90;10.73;;;4.80;99.90;;;;;;5123199;28;20335;-59
2022/02/27 10:29:28;;;;;;;18.30;10.73;;;4.80;99.90;;;;;;5121350;28;20226;-59
2022/02/27 10:32:00;;;;;;;15.93;11.23;;;4.80;99.90;;;;;;5111575;28;20207;-59
2022/02/27 10:34:33;;;;;;;13.85;11.05;;;4.80;99.90;;;;;;5130183;28;20609;-59
2022/02/27 10:37:05;;;;;;;13.93;10.80;;;4.80;99.90;;;;;;5126872;27;20315;-59
2022/02/27 10:39:42;;;;;;;12.93;10.85;;;4.70;99.90;;;;;;5122682;28;20252;-59
2022/02/27 10:42:18;;;;;;;13.48;11.75;;;4.70;99.90;;;;;;5126587;27;20199;-59
2022/02/27 10:44:56;;;;;;;14.75;10.95;;;4.70;99.90;;;;;;5121751;27;20192;-59
2022/02/27 10:47:29;;;;;;;15.90;12.45;;;4.60;99.90;;;;;;5124958;27;20204;-59
2022/02/27 10:50:01;;;;;;;14.23;11.57;;;4.70;99.90;;;;;;5115853;28;20227;-59
2022/02/27 10:52:34;;;;;;;16.65;11.60;;;4.70;99.90;;;;;;5125197;28;20208;-59
2022/02/27 10:55:08;;;;;;;15.70;12.52;;;4.70;99.90;;;;;;5127930;27;20199;-60
2022/02/27 10:57:41;;;;;;;17.92;12.45;;;4.80;99.90;;;;;;5125252;28;20227;-59
2022/02/27 11:00:19;;;;;;;16.15;12.05;;;4.80;99.90;;;;;;5128423;27;20203;-58
2022/02/27 11:02:52;;;;;;;15.60;13.32;;;4.90;99.90;;;;;;5121730;27;20655;-59
2022/02/27 11:05:24;;;;;;;14.50;11.43;;;5.00;99.90;;;;;;5124980;28;20204;-59
2022/02/27 11:07:57;;;;;;;18.27;12.70;;;4.90;99.90;;;;;;5125268;27;20216;-59
2022/02/27 11:10:30;;;;;;;15.13;12.73;;;5.00;99.90;;;;;;5131676;27;20326;-59
2022/02/27 11:13:02;;;;;;;18.08;13.40;;;5.00;99.90;;;;;;5123902;27;20287;-59
2022/02/27 11:15:35;;;;;;;20.08;13.45;;;5.00;99.90;;;;;;5121796;28;20195;-59
2022/02/27 11:18:07;;;;;;;15.70;12.38;;;5.00;99.90;;;;;;5128151;27;20288;-59
2022/02/27 11:20:40;;;;;;;15.00;12.43;;;5.10;99.90;;;;;;5126296;27;20204;-58
2022/02/27 11:23:12;;;;;;;16.38;12.43;;;5.10;99.90;;;;;;5124320;28;20215;-58
2022/02/27 11:25:43;;;;;;;15.98;13.07;;;5.00;99.90;;;;;;5124555;28;20195;-59
2022/02/27 11:28:16;;;;;;;14.57;11.82;;;5.10;99.90;;;;;;5123865;27;20195;-59
2022/02/27 11:30:50;;;;;;;15.50;12.52;;;5.00;99.90;;;;;;5124577;28;20224;-58
2022/02/27 11:33:23;;;;;;;14.70;11.30;;;5.00;99.90;;;;;;5124028;28;20200;-59
2022/02/27 11:35:55;;;;;;;14.90;11.52;;;5.00;99.90;;;;;;5124347;28;20196;-58
2022/02/27 11:38:37;;;;;;;15.00;12.38;;;4.90;99.90;;;;;;5121048;28;20200;-59
2022/02/27 11:41:13;;;;;;;17.00;12.07;;;4.90;99.90;;;;;;5122739;28;20273;-58
2022/02/27 11:43:50;;;;;;;17.77;12.48;;;5.00;99.90;;;;;;5122937;27;20219;-59
2022/02/27 11:46:35;;;;;;;14.98;11.50;;;5.00;99.90;;;;;;5128161;27;20274;-59
2022/02/27 11:49:08;;;;;;;15.50;12.10;;;5.10;99.90;;;;;;5121401;27;20199;-58
2022/02/27 11:51:54;;;;;;;17.65;12.65;;;5.10;99.90;;;;;;5122936;28;20234;-58
2022/02/27 11:54:26;;;;;;;13.43;11.27;;;5.10;99.90;;;;;;5116267;27;20200;-60
2022/02/27 11:57:09;;;;;;;15.00;12.82;;;5.00;99.90;;;;;;5126805;27;20230;-58
2022/02/27 12:00:03;;;;;;;16.13;12.75;;;5.10;99.90;;;;;;5129760;27;20594;-58
2022/02/27 12:02:41;;;;;;;15.35;12.25;;;5.10;99.90;;;;;;5126515;27;20200;-58
2022/02/27 12:05:15;;;;;;;15.45;11.20;;;5.20;99.90;;;;;;5117913;28;20244;-60
2022/02/27 12:08:09;;;;;;;16.90;12.52;;;5.10;99.90;;;;;;5121596;27;20196;-58
2022/02/27 12:10:44;;;;;;;16.10;12.70;;;5.20;99.90;;;;;;5124471;27;20223;-58
2022/02/27 12:13:26;;;;;;;16.25;11.65;;;5.20;99.90;;;;;;5115979;28;20187;-58
2022/02/27 12:16:09;;;;;;;14.35;11.27;;;5.20;99.90;;;;;;5124051;27;20196;-58
2022/02/27 12:18:53;;;;;;;14.75;11.13;;;5.30;99.90;;;;;;5119180;27;20271;-58
2022/02/27 12:21:39;;;;;;;15.07;11.43;;;5.40;99.90;;;;;;5125626;27;20206;-58
2022/02/27 12:24:13;;;;;;;13.45;10.82;;;5.40;99.90;;;;;;5123421;27;20200;-58
2022/02/27 12:26:48;;;;;;;13.45;11.00;;;5.50;99.90;;;;;;5132031;27;20215;-59
2022/02/27 12:29:27;;;;;;;15.00;10.93;;;5.50;99.90;;;;;;5122846;28;20282;-58
2022/02/27 12:32:03;;;;;;;12.77;11.07;;;5.50;99.90;;;;;;5123471;28;20222;-58
2022/02/27 12:34:36;;;;;;;15.63;11.25;;;5.50;99.90;;;;;;5122414;28;20532;-58
2022/02/27 12:37:08;;;;;;;17.70;11.35;;;5.50;99.90;;;;;;5124351;27;20666;-58
2022/02/27 12:39:41;;;;;;;16.40;12.48;;;5.50;99.90;;;;;;5123378;28;20203;-58
2022/02/27 12:42:18;;;;;;;14.90;12.00;;;5.60;99.90;;;;;;5116802;27;20221;-58
2022/02/27 12:44:51;;;;;;;16.58;12.32;;;5.60;99.90;;;;;;5123071;28;20200;-58
2022/02/27 12:47:23;;;;;;;15.95;12.30;;;5.60;99.90;;;;;;5122795;28;20522;-59
2022/02/27 12:50:18;;;;;;;12.75;10.80;;;5.60;99.90;;;;;;5124340;28;20188;-58
2022/02/27 12:52:49;;;;;;;16.48;12.35;;;5.60;99.90;;;;;;5121334;28;20199;-58
2022/02/27 12:55:22;;;;;;;17.10;12.30;;;5.60;99.90;;;;;;5124059;27;20202;-58
2022/02/27 12:57:55;;;;;;;14.68;11.93;;;5.60;99.90;;;;;;5122240;28;20227;-58
2022/02/27 13:00:27;;;;;;;14.30;11.38;;;5.60;99.90;;;;;;5127746;27;20628;-58
2022/02/27 13:02:58;;;;;;;14.60;11.65;;;5.60;99.90;;;;;;5121254;28;20257;-58
2022/02/27 13:05:33;;;;;;;19.15;11.75;;;5.60;99.90;;;;;;5123956;28;20188;-59
2022/02/27 13:08:04;;;;;;;15.13;10.90;;;5.60;99.90;;;;;;5124086;28;20541;-58
2022/02/27 13:10:36;;;;;;;15.52;11.48;;;5.70;99.90;;;;;;5123643;28;20224;-59
2022/02/27 13:13:14;;;;;;;16.35;12.38;;;5.70;99.90;;;;;;5122571;28;20196;-58
2022/02/27 13:15:50;;;;;;;17.13;12.65;;;5.70;99.90;;;;;;5123916;28;20200;-58
2022/02/27 13:18:22;;;;;;;18.08;13.35;;;5.70;99.90;;;;;;5122360;28;20203;-58